sensor_id;sensor_type;location;lat;lon;timestamp;temperature;humidity
13684;DHT22;6914;53.552;9.908;2023-02-15T00:01:36;3.50;99.90
13684;DHT22;6914;53.552;9.908;2023-02-15T00:04:03;3.60;99.90
13684;DHT22;6914;53.552;9.908;2023-02-15T00:06:32;3.40;99.90
13684;DHT22;6914;53.552;9.908;2023-02-15T00:09:00;3.50;99.90
13684;DHT22;6914;53.552;9.908;2023-02-15T00:11:28;3.50;99.90
13684;DHT22;6914;53.552;9.908;2023-02-15T00:14:09;3.50;99.90
13684;DHT22;6914;53.552;9.908;2023-02-15T00:16:37;3.50;99.90
13684;DHT22;6914;53.552;9.908;2023-02-15T00:19:04;3.50;99.90
13684;DHT22;6914;53.552;9.908;2023-02-15T00:21:34;3.60;99.90
13684;DHT22;6914;53.552;9.908;2023-02-15T00:24:04;3.60;99.90
13684;DHT22;6914;53.552;9.908;2023-02-15T00:26:31;3.70;99.90
13684;DHT22;6914;53.552;9.908;2023-02-15T00:28:58;3.50;99.90
13684;DHT22;6914;53.552;9.908;2023-02-15T00:31:26;3.50;99.90
13684;DHT22;6914;53.552;9.908;2023-02-15T00:33:53;3.60;99.90
13684;DHT22;6914;53.552;9.908;2023-02-15T00:36:20;3.50;99.90
13684;DHT22;6914;53.552;9.908;2023-02-15T00:38:50;3.50;99.90
13684;DHT22;6914;53.552;9.908;2023-02-15T00:41:17;3.60;99.90
13684;DHT22;6914;53.552;9.908;2023-02-15T00:43:44;3.60;99.90
13684;DHT22;6914;53.552;9.908;2023-02-15T00:46:12;3.50;99.90
13684;DHT22;6914;53.552;9.908;2023-02-15T00:48:39;3.70;99.90
13684;DHT22;6914;53.552;9.908;2023-02-15T00:51:06;3.60;99.90
13684;DHT22;6914;53.552;9.908;2023-02-15T00:53:33;4.10;99.90
13684;DHT22;6914;53.552;9.908;2023-02-15T00:56:01;3.60;99.90
13684;DHT22;6914;53.552;9.908;2023-02-15T00:58:28;3.90;99.90
13684;DHT22;6914;53.552;9.908;2023-02-15T01:01:03;3.70;99.90
13684;DHT22;6914;53.552;9.908;2023-02-15T01:03:31;3.70;99.90
13684;DHT22;6914;53.552;9.908;2023-02-15T01:05:58;3.90;99.90
13684;DHT22;6914;53.552;9.908;2023-02-15T01:08:25;3.70;99.90
13684;DHT22;6914;53.552;9.908;2023-02-15T01:10:52;3.70;99.90
13684;DHT22;6914;53.552;9.908;2023-02-15T01:13:21;3.70;99.90
13684;DHT22;6914;53.552;9.908;2023-02-15T01:15:53;3.60;99.90
13684;DHT22;6914;53.552;9.908;2023-02-15T01:18:20;3.70;99.90
13684;DHT22;6914;53.552;9.908;2023-02-15T01:20:47;3.60;99.90
13684;DHT22;6914;53.552;9.908;2023-02-15T01:23:16;3.60;99.90
13684;DHT22;6914;53.552;9.908;2023-02-15T01:25:43;3.70;99.90
13684;DHT22;6914;53.552;9.908;2023-02-15T01:28:10;3.70;99.90
13684;DHT22;6914;53.552;9.908;2023-02-15T01:30:38;3.80;99.90
13684;DHT22;6914;53.552;9.908;2023-02-15T01:33:05;3.80;99.90
13684;DHT22;6914;53.552;9.908;2023-02-15T01:35:32;3.80;99.90
13684;DHT22;6914;53.552;9.908;2023-02-15T01:37:59;3.70;99.90
13684;DHT22;6914;53.552;9.908;2023-02-15T01:40:26;3.80;99.90
13684;DHT22;6914;53.552;9.908;2023-02-15T01:42:53;3.60;99.90
13684;DHT22;6914;53.552;9.908;2023-02-15T01:45:25;3.70;99.90
13684;DHT22;6914;53.552;9.908;2023-02-15T01:47:56;3.70;99.90
13684;DHT22;6914;53.552;9.908;2023-02-15T01:50:28;2.50;99.90
13684;DHT22;6914;53.552;9.908;2023-02-15T01:52:58;3.70;99.90
13684;DHT22;6914;53.552;9.908;2023-02-15T01:55:31;3.70;99.90
13684;DHT22;6914;53.552;9.908;2023-02-15T01:57:59;3.70;99.90
13684;DHT22;6914;53.552;9.908;2023-02-15T02:00:27;3.70;99.90
13684;DHT22;6914;53.552;9.908;2023-02-15T02:02:57;3.70;99.90
13684;DHT22;6914;53.552;9.908;2023-02-15T02:05:24;3.80;99.90
13684;DHT22;6914;53.552;9.908;2023-02-15T02:07:52;3.70;99.90
13684;DHT22;6914;53.552;9.908;2023-02-15T02:10:22;3.70;99.90
13684;DHT22;6914;53.552;9.908;2023-02-15T02:12:52;3.70;99.90
13684;DHT22;6914;53.552;9.908;2023-02-15T02:15:25;3.70;99.90
13684;DHT22;6914;53.552;9.908;2023-02-15T02:18:06;3.80;99.90
13684;DHT22;6914;53.552;9.908;2023-02-15T02:20:59;4.70;99.90
13684;DHT22;6914;53.552;9.908;2023-02-15T02:23:38;3.80;99.90
13684;DHT22;6914;53.552;9.908;2023-02-15T02:29:47;3.70;99.90
13684;DHT22;6914;53.552;9.908;2023-02-15T02:35:25;3.80;99.90
13684;DHT22;6914;53.552;9.908;2023-02-15T02:38:02;3.70;99.90
13684;DHT22;6914;53.552;9.908;2023-02-15T02:40:38;3.70;99.90
13684;DHT22;6914;53.552;9.908;2023-02-15T02:43:17;3.70;99.90
13684;DHT22;6914;53.552;9.908;2023-02-15T02:45:52;3.70;99.90
13684;DHT22;6914;53.552;9.908;2023-02-15T02:48:24;3.80;99.90
13684;DHT22;6914;53.552;9.908;2023-02-15T02:50:54;3.90;99.90
13684;DHT22;6914;53.552;9.908;2023-02-15T02:53:20;3.70;99.90
13684;DHT22;6914;53.552;9.908;2023-02-15T02:55:52;3.70;99.90
13684;DHT22;6914;53.552;9.908;2023-02-15T02:58:23;3.70;99.90
13684;DHT22;6914;53.552;9.908;2023-02-15T03:00:56;3.80;99.90
13684;DHT22;6914;53.552;9.908;2023-02-15T03:03:26;3.90;99.90
13684;DHT22;6914;53.552;9.908;2023-02-15T03:05:58;3.70;99.90
13684;DHT22;6914;53.552;9.908;2023-02-15T03:08:33;4.00;99.90
13684;DHT22;6914;53.552;9.908;2023-02-15T03:11:03;3.60;99.90
13684;DHT22;6914;53.552;9.908;2023-02-15T03:13:30;3.70;99.90
13684;DHT22;6914;53.552;9.908;2023-02-15T03:15:58;3.70;99.90
13684;DHT22;6914;53.552;9.908;2023-02-15T03:18:46;3.60;99.90
13684;DHT22;6914;53.552;9.908;2023-02-15T03:21:20;4.20;99.90
13684;DHT22;6914;53.552;9.908;2023-02-15T03:23:52;3.60;99.90
13684;DHT22;6914;53.552;9.908;2023-02-15T03:26:21;3.70;99.90
13684;DHT22;6914;53.552;9.908;2023-02-15T03:28:52;3.70;99.90
13684;DHT22;6914;53.552;9.908;2023-02-15T03:31:22;3.60;99.90
13684;DHT22;6914;53.552;9.908;2023-02-15T03:33:53;3.60;99.90
13684;DHT22;6914;53.552;9.908;2023-02-15T03:36:27;4.60;99.90
13684;DHT22;6914;53.552;9.908;2023-02-15T03:38:59;3.60;99.90
13684;DHT22;6914;53.552;9.908;2023-02-15T03:41:31;3.60;99.90
13684;DHT22;6914;53.552;9.908;2023-02-15T03:44:03;3.60;99.90
13684;DHT22;6914;53.552;9.908;2023-02-15T03:46:33;3.70;99.90
13684;DHT22;6914;53.552;9.908;2023-02-15T03:49:06;3.50;99.90
13684;DHT22;6914;53.552;9.908;2023-02-15T03:51:39;3.50;99.90
13684;DHT22;6914;53.552;9.908;2023-02-15T03:54:09;3.30;99.90
13684;DHT22;6914;53.552;9.908;2023-02-15T03:56:39;3.30;99.90
13684;DHT22;6914;53.552;9.908;2023-02-15T03:59:06;3.50;99.90
13684;DHT22;6914;53.552;9.908;2023-02-15T04:02:00;3.50;99.90
13684;DHT22;6914;53.552;9.908;2023-02-15T04:04:33;3.40;99.90
13684;DHT22;6914;53.552;9.908;2023-02-15T04:07:04;3.50;99.90
13684;DHT22;6914;53.552;9.908;2023-02-15T04:09:32;3.40;99.90
13684;DHT22;6914;53.552;9.908;2023-02-15T04:12:16;3.90;99.90
13684;DHT22;6914;53.552;9.908;2023-02-15T04:14:43;3.50;99.90
13684;DHT22;6914;53.552;9.908;2023-02-15T04:17:28;3.50;99.90
13684;DHT22;6914;53.552;9.908;2023-02-15T04:19:55;3.50;99.90
13684;DHT22;6914;53.552;9.908;2023-02-15T04:22:40;3.40;99.90
13684;DHT22;6914;53.552;9.908;2023-02-15T04:25:24;3.40;99.90
13684;DHT22;6914;53.552;9.908;2023-02-15T04:27:54;3.40;99.90
13684;DHT22;6914;53.552;9.908;2023-02-15T04:30:23;3.40;99.90
13684;DHT22;6914;53.552;9.908;2023-02-15T04:32:53;3.40;99.90
13684;DHT22;6914;53.552;9.908;2023-02-15T04:35:19;3.30;99.90
13684;DHT22;6914;53.552;9.908;2023-02-15T04:37:50;3.50;99.90
13684;DHT22;6914;53.552;9.908;2023-02-15T04:40:19;3.40;99.90
13684;DHT22;6914;53.552;9.908;2023-02-15T04:42:47;3.40;99.90
13684;DHT22;6914;53.552;9.908;2023-02-15T04:45:15;3.40;99.90
13684;DHT22;6914;53.552;9.908;2023-02-15T04:47:42;3.40;99.90
13684;DHT22;6914;53.552;9.908;2023-02-15T04:50:10;3.40;99.90
13684;DHT22;6914;53.552;9.908;2023-02-15T04:52:37;3.40;99.90
13684;DHT22;6914;53.552;9.908;2023-02-15T04:55:06;3.40;99.90
13684;DHT22;6914;53.552;9.908;2023-02-15T04:57:33;3.30;99.90
13684;DHT22;6914;53.552;9.908;2023-02-15T05:00:00;3.20;99.90
13684;DHT22;6914;53.552;9.908;2023-02-15T05:02:27;3.20;99.90
13684;DHT22;6914;53.552;9.908;2023-02-15T05:04:54;3.20;99.90
13684;DHT22;6914;53.552;9.908;2023-02-15T05:07:21;3.20;99.90
13684;DHT22;6914;53.552;9.908;2023-02-15T05:09:48;3.20;99.90
13684;DHT22;6914;53.552;9.908;2023-02-15T05:12:19;3.10;99.90
13684;DHT22;6914;53.552;9.908;2023-02-15T05:14:46;3.10;99.90
13684;DHT22;6914;53.552;9.908;2023-02-15T05:17:12;3.20;99.90
13684;DHT22;6914;53.552;9.908;2023-02-15T05:19:39;1.70;99.90
13684;DHT22;6914;53.552;9.908;2023-02-15T05:22:06;3.10;99.90
13684;DHT22;6914;53.552;9.908;2023-02-15T05:24:33;3.10;99.90
13684;DHT22;6914;53.552;9.908;2023-02-15T05:27:19;3.00;99.90
13684;DHT22;6914;53.552;9.908;2023-02-15T05:30:04;3.20;99.90
13684;DHT22;6914;53.552;9.908;2023-02-15T05:32:36;3.30;99.90
13684;DHT22;6914;53.552;9.908;2023-02-15T05:35:04;3.00;99.90
13684;DHT22;6914;53.552;9.908;2023-02-15T05:37:31;3.00;99.90
13684;DHT22;6914;53.552;9.908;2023-02-15T05:39:58;2.80;99.90
13684;DHT22;6914;53.552;9.908;2023-02-15T05:42:26;2.90;99.90
13684;DHT22;6914;53.552;9.908;2023-02-15T05:44:52;2.90;99.90
13684;DHT22;6914;53.552;9.908;2023-02-15T05:47:19;3.10;99.90
13684;DHT22;6914;53.552;9.908;2023-02-15T05:49:46;3.00;99.90
13684;DHT22;6914;53.552;9.908;2023-02-15T05:52:13;3.00;99.90
13684;DHT22;6914;53.552;9.908;2023-02-15T05:54:40;3.10;99.90
13684;DHT22;6914;53.552;9.908;2023-02-15T05:57:07;3.10;99.90
13684;DHT22;6914;53.552;9.908;2023-02-15T05:59:35;2.60;99.90
13684;DHT22;6914;53.552;9.908;2023-02-15T06:02:02;2.90;99.90
13684;DHT22;6914;53.552;9.908;2023-02-15T06:04:29;2.90;99.90
13684;DHT22;6914;53.552;9.908;2023-02-15T06:06:56;3.10;99.90
13684;DHT22;6914;53.552;9.908;2023-02-15T06:09:23;2.80;99.90
13684;DHT22;6914;53.552;9.908;2023-02-15T06:11:52;2.90;99.90
13684;DHT22;6914;53.552;9.908;2023-02-15T06:14:19;3.20;99.90
13684;DHT22;6914;53.552;9.908;2023-02-15T06:16:48;2.90;99.90
13684;DHT22;6914;53.552;9.908;2023-02-15T06:19:15;2.90;99.90
13684;DHT22;6914;53.552;9.908;2023-02-15T06:21:42;3.10;99.90
13684;DHT22;6914;53.552;9.908;2023-02-15T06:24:09;2.90;99.90
13684;DHT22;6914;53.552;9.908;2023-02-15T06:26:36;2.80;99.90
13684;DHT22;6914;53.552;9.908;2023-02-15T06:29:03;2.80;99.90
13684;DHT22;6914;53.552;9.908;2023-02-15T06:31:30;3.40;99.90
13684;DHT22;6914;53.552;9.908;2023-02-15T06:33:58;2.80;99.90
13684;DHT22;6914;53.552;9.908;2023-02-15T06:36:27;2.80;99.90
13684;DHT22;6914;53.552;9.908;2023-02-15T06:38:54;4.30;99.90
13684;DHT22;6914;53.552;9.908;2023-02-15T06:41:21;2.80;99.90
13684;DHT22;6914;53.552;9.908;2023-02-15T06:43:49;2.80;99.90
13684;DHT22;6914;53.552;9.908;2023-02-15T06:46:18;2.70;99.90
13684;DHT22;6914;53.552;9.908;2023-02-15T06:48:45;2.70;99.90
13684;DHT22;6914;53.552;9.908;2023-02-15T06:51:13;3.00;99.90
13684;DHT22;6914;53.552;9.908;2023-02-15T06:53:40;2.70;99.90
13684;DHT22;6914;53.552;9.908;2023-02-15T06:56:09;2.80;99.90
13684;DHT22;6914;53.552;9.908;2023-02-15T06:58:36;2.80;99.90
13684;DHT22;6914;53.552;9.908;2023-02-15T07:01:03;2.80;99.90
13684;DHT22;6914;53.552;9.908;2023-02-15T07:03:31;2.80;99.90
13684;DHT22;6914;53.552;9.908;2023-02-15T07:06:00;2.80;99.90
13684;DHT22;6914;53.552;9.908;2023-02-15T07:08:29;2.80;99.90
13684;DHT22;6914;53.552;9.908;2023-02-15T07:10:56;2.90;99.90
13684;DHT22;6914;53.552;9.908;2023-02-15T07:13:44;2.70;99.90
13684;DHT22;6914;53.552;9.908;2023-02-15T07:16:10;2.60;99.90
13684;DHT22;6914;53.552;9.908;2023-02-15T07:18:36;2.50;99.90
13684;DHT22;6914;53.552;9.908;2023-02-15T07:21:04;2.60;99.90
13684;DHT22;6914;53.552;9.908;2023-02-15T07:23:34;2.50;99.90
13684;DHT22;6914;53.552;9.908;2023-02-15T07:26:02;2.60;99.90
13684;DHT22;6914;53.552;9.908;2023-02-15T07:28:29;2.50;99.90
13684;DHT22;6914;53.552;9.908;2023-02-15T07:30:56;2.60;99.90
13684;DHT22;6914;53.552;9.908;2023-02-15T07:33:24;2.60;99.90
13684;DHT22;6914;53.552;9.908;2023-02-15T07:35:55;2.80;99.90
13684;DHT22;6914;53.552;9.908;2023-02-15T07:38:24;2.70;99.90
13684;DHT22;6914;53.552;9.908;2023-02-15T07:40:57;2.70;99.90
13684;DHT22;6914;53.552;9.908;2023-02-15T07:43:24;2.60;99.90
13684;DHT22;6914;53.552;9.908;2023-02-15T07:45:54;2.60;99.90
13684;DHT22;6914;53.552;9.908;2023-02-15T07:48:21;2.70;99.90
13684;DHT22;6914;53.552;9.908;2023-02-15T07:50:48;2.60;99.90
13684;DHT22;6914;53.552;9.908;2023-02-15T07:53:15;2.60;99.90
13684;DHT22;6914;53.552;9.908;2023-02-15T07:55:42;2.60;99.90
13684;DHT22;6914;53.552;9.908;2023-02-15T07:58:10;2.60;99.90
13684;DHT22;6914;53.552;9.908;2023-02-15T08:00:37;2.60;99.90
13684;DHT22;6914;53.552;9.908;2023-02-15T08:03:18;2.80;99.90
13684;DHT22;6914;53.552;9.908;2023-02-15T08:05:45;2.30;99.90
13684;DHT22;6914;53.552;9.908;2023-02-15T08:08:12;2.60;99.90
13684;DHT22;6914;53.552;9.908;2023-02-15T08:10:58;2.60;99.90
13684;DHT22;6914;53.552;9.908;2023-02-15T08:13:45;2.70;99.90
13684;DHT22;6914;53.552;9.908;2023-02-15T08:16:27;2.80;99.90
13684;DHT22;6914;53.552;9.908;2023-02-15T08:18:56;2.80;99.90
13684;DHT22;6914;53.552;9.908;2023-02-15T08:21:25;4.10;99.90
13684;DHT22;6914;53.552;9.908;2023-02-15T08:23:53;2.60;99.90
13684;DHT22;6914;53.552;9.908;2023-02-15T08:26:23;2.60;99.90
13684;DHT22;6914;53.552;9.908;2023-02-15T08:28:52;2.70;99.90
13684;DHT22;6914;53.552;9.908;2023-02-15T08:31:21;2.50;99.90
13684;DHT22;6914;53.552;9.908;2023-02-15T08:33:50;2.50;99.90
13684;DHT22;6914;53.552;9.908;2023-02-15T08:36:19;2.50;99.90
13684;DHT22;6914;53.552;9.908;2023-02-15T08:38:47;2.70;99.90
13684;DHT22;6914;53.552;9.908;2023-02-15T08:41:16;2.50;99.90
13684;DHT22;6914;53.552;9.908;2023-02-15T08:43:45;2.60;99.90
13684;DHT22;6914;53.552;9.908;2023-02-15T08:46:15;2.50;99.90
13684;DHT22;6914;53.552;9.908;2023-02-15T08:48:42;2.40;99.90
13684;DHT22;6914;53.552;9.908;2023-02-15T08:51:12;2.60;99.90
13684;DHT22;6914;53.552;9.908;2023-02-15T08:53:40;2.70;99.90
13684;DHT22;6914;53.552;9.908;2023-02-15T08:56:08;2.50;99.90
13684;DHT22;6914;53.552;9.908;2023-02-15T08:58:35;2.50;99.90
13684;DHT22;6914;53.552;9.908;2023-02-15T09:01:09;2.60;99.90
13684;DHT22;6914;53.552;9.908;2023-02-15T09:03:37;2.70;99.90
13684;DHT22;6914;53.552;9.908;2023-02-15T09:06:06;2.60;99.90
13684;DHT22;6914;53.552;9.908;2023-02-15T09:08:33;2.70;99.90
13684;DHT22;6914;53.552;9.908;2023-02-15T09:11:08;2.70;99.90
13684;DHT22;6914;53.552;9.908;2023-02-15T09:13:36;2.70;99.90
13684;DHT22;6914;53.552;9.908;2023-02-15T09:16:05;2.70;99.90
13684;DHT22;6914;53.552;9.908;2023-02-15T09:18:34;3.00;99.90
13684;DHT22;6914;53.552;9.908;2023-02-15T09:21:09;3.10;99.90
13684;DHT22;6914;53.552;9.908;2023-02-15T09:23:39;3.10;99.90
13684;DHT22;6914;53.552;9.908;2023-02-15T09:26:07;3.00;99.90
13684;DHT22;6914;53.552;9.908;2023-02-15T09:28:35;3.10;99.90
13684;DHT22;6914;53.552;9.908;2023-02-15T09:31:07;3.20;99.90
13684;DHT22;6914;53.552;9.908;2023-02-15T09:33:36;2.90;99.90
13684;DHT22;6914;53.552;9.908;2023-02-15T09:36:03;3.80;99.90
13684;DHT22;6914;53.552;9.908;2023-02-15T09:38:31;3.00;99.90
13684;DHT22;6914;53.552;9.908;2023-02-15T09:41:10;2.90;99.90
13684;DHT22;6914;53.552;9.908;2023-02-15T09:43:44;3.00;99.90
13684;DHT22;6914;53.552;9.908;2023-02-15T09:46:31;3.00;99.90
13684;DHT22;6914;53.552;9.908;2023-02-15T09:49:08;3.20;99.90
13684;DHT22;6914;53.552;9.908;2023-02-15T09:51:56;3.10;99.90
13684;DHT22;6914;53.552;9.908;2023-02-15T09:54:39;3.10;99.90
13684;DHT22;6914;53.552;9.908;2023-02-15T09:57:15;3.10;99.90
13684;DHT22;6914;53.552;9.908;2023-02-15T09:59:50;3.40;99.90
13684;DHT22;6914;53.552;9.908;2023-02-15T10:02:32;4.90;99.90
13684;DHT22;6914;53.552;9.908;2023-02-15T10:05:12;3.40;99.90
13684;DHT22;6914;53.552;9.908;2023-02-15T10:08:02;3.60;99.90
13684;DHT22;6914;53.552;9.908;2023-02-15T10:10:39;3.50;99.90
13684;DHT22;6914;53.552;9.908;2023-02-15T10:13:18;3.30;99.90
13684;DHT22;6914;53.552;9.908;2023-02-15T10:16:00;3.30;99.90
13684;DHT22;6914;53.552;9.908;2023-02-15T10:18:44;3.40;99.90
13684;DHT22;6914;53.552;9.908;2023-02-15T10:21:23;3.50;99.90
13684;DHT22;6914;53.552;9.908;2023-02-15T10:24:17;3.70;99.90
13684;DHT22;6914;53.552;9.908;2023-02-15T10:26:49;3.90;99.90
13684;DHT22;6914;53.552;9.908;2023-02-15T10:29:24;2.50;99.90
13684;DHT22;6914;53.552;9.908;2023-02-15T10:32:00;4.10;99.90
13684;DHT22;6914;53.552;9.908;2023-02-15T10:34:35;5.30;99.90
13684;DHT22;6914;53.552;9.908;2023-02-15T10:37:23;4.00;99.90
13684;DHT22;6914;53.552;9.908;2023-02-15T10:40:04;4.10;99.90
13684;DHT22;6914;53.552;9.908;2023-02-15T10:42:46;4.20;99.90
13684;DHT22;6914;53.552;9.908;2023-02-15T10:45:23;4.60;99.90
13684;DHT22;6914;53.552;9.908;2023-02-15T10:48:16;4.80;99.90
13684;DHT22;6914;53.552;9.908;2023-02-15T10:50:48;4.80;99.90
13684;DHT22;6914;53.552;9.908;2023-02-15T10:56:22;5.30;99.90
13684;DHT22;6914;53.552;9.908;2023-02-15T10:59:09;5.20;99.90
13684;DHT22;6914;53.552;9.908;2023-02-15T11:01:42;5.20;99.90
13684;DHT22;6914;53.552;9.908;2023-02-15T11:04:43;5.50;99.90
13684;DHT22;6914;53.552;9.908;2023-02-15T11:07:16;5.90;99.90
13684;DHT22;6914;53.552;9.908;2023-02-15T11:09:47;5.90;99.90
13684;DHT22;6914;53.552;9.908;2023-02-15T11:12:17;6.30;99.90
13684;DHT22;6914;53.552;9.908;2023-02-15T11:14:52;6.40;99.90
13684;DHT22;6914;53.552;9.908;2023-02-15T11:17:25;6.90;99.90
13684;DHT22;6914;53.552;9.908;2023-02-15T11:19:58;7.00;99.90
13684;DHT22;6914;53.552;9.908;2023-02-15T11:22:29;7.70;99.90
13684;DHT22;6914;53.552;9.908;2023-02-15T11:24:58;8.20;99.90
13684;DHT22;6914;53.552;9.908;2023-02-15T11:27:31;8.20;99.90
13684;DHT22;6914;53.552;9.908;2023-02-15T11:30:05;8.60;99.90
13684;DHT22;6914;53.552;9.908;2023-02-15T11:32:38;8.50;99.90
13684;DHT22;6914;53.552;9.908;2023-02-15T11:35:19;8.60;99.90
13684;DHT22;6914;53.552;9.908;2023-02-15T11:37:50;8.50;99.90
13684;DHT22;6914;53.552;9.908;2023-02-15T11:40:22;8.20;99.90
13684;DHT22;6914;53.552;9.908;2023-02-15T11:42:53;8.80;99.90
13684;DHT22;6914;53.552;9.908;2023-02-15T11:45:26;9.30;99.90
13684;DHT22;6914;53.552;9.908;2023-02-15T11:47:54;9.70;99.90
13684;DHT22;6914;53.552;9.908;2023-02-15T11:50:24;9.70;99.90
13684;DHT22;6914;53.552;9.908;2023-02-15T11:52:54;9.40;99.90
13684;DHT22;6914;53.552;9.908;2023-02-15T11:55:24;9.70;99.90
13684;DHT22;6914;53.552;9.908;2023-02-15T11:57:54;10.50;99.90
13684;DHT22;6914;53.552;9.908;2023-02-15T12:00:31;10.70;99.90
13684;DHT22;6914;53.552;9.908;2023-02-15T12:03:07;11.00;99.90
13684;DHT22;6914;53.552;9.908;2023-02-15T12:05:37;10.70;99.90
13684;DHT22;6914;53.552;9.908;2023-02-15T12:08:12;10.60;99.90
13684;DHT22;6914;53.552;9.908;2023-02-15T12:10:53;11.10;99.90
13684;DHT22;6914;53.552;9.908;2023-02-15T12:13:23;10.90;99.90
13684;DHT22;6914;53.552;9.908;2023-02-15T12:15:53;11.40;99.90
13684;DHT22;6914;53.552;9.908;2023-02-15T12:18:31;11.50;99.90
13684;DHT22;6914;53.552;9.908;2023-02-15T12:21:03;11.50;99.90
13684;DHT22;6914;53.552;9.908;2023-02-15T12:23:32;12.00;99.90
13684;DHT22;6914;53.552;9.908;2023-02-15T12:26:02;11.20;99.90
13684;DHT22;6914;53.552;9.908;2023-02-15T12:28:33;11.70;99.90
13684;DHT22;6914;53.552;9.908;2023-02-15T12:31:07;11.10;99.90
13684;DHT22;6914;53.552;9.908;2023-02-15T12:33:39;11.40;99.90
13684;DHT22;6914;53.552;9.908;2023-02-15T12:36:15;10.80;99.90
13684;DHT22;6914;53.552;9.908;2023-02-15T12:38:43;11.60;99.90
13684;DHT22;6914;53.552;9.908;2023-02-15T12:41:28;11.40;99.90
13684;DHT22;6914;53.552;9.908;2023-02-15T12:44:04;11.70;99.90
13684;DHT22;6914;53.552;9.908;2023-02-15T12:46:33;12.00;99.90
13684;DHT22;6914;53.552;9.908;2023-02-15T12:49:11;13.40;99.90
13684;DHT22;6914;53.552;9.908;2023-02-15T12:51:46;11.50;99.90
13684;DHT22;6914;53.552;9.908;2023-02-15T12:54:20;11.30;99.90
13684;DHT22;6914;53.552;9.908;2023-02-15T12:56:50;11.80;99.90
13684;DHT22;6914;53.552;9.908;2023-02-15T12:59:18;11.70;99.90
13684;DHT22;6914;53.552;9.908;2023-02-15T13:01:47;11.60;99.90
13684;DHT22;6914;53.552;9.908;2023-02-15T13:04:20;11.20;99.90
13684;DHT22;6914;53.552;9.908;2023-02-15T13:06:50;12.00;99.90
13684;DHT22;6914;53.552;9.908;2023-02-15T13:09:20;12.20;99.90
13684;DHT22;6914;53.552;9.908;2023-02-15T13:11:47;12.30;99.90
13684;DHT22;6914;53.552;9.908;2023-02-15T13:14:18;11.40;99.90
13684;DHT22;6914;53.552;9.908;2023-02-15T13:16:51;10.70;99.90
13684;DHT22;6914;53.552;9.908;2023-02-15T13:19:20;10.90;99.90
13684;DHT22;6914;53.552;9.908;2023-02-15T13:21:51;11.00;99.90
13684;DHT22;6914;53.552;9.908;2023-02-15T13:24:22;11.10;99.90
13684;DHT22;6914;53.552;9.908;2023-02-15T13:26:51;11.00;99.90
13684;DHT22;6914;53.552;9.908;2023-02-15T13:29:23;11.00;99.90
13684;DHT22;6914;53.552;9.908;2023-02-15T13:31:54;10.90;99.90
13684;DHT22;6914;53.552;9.908;2023-02-15T13:34:24;10.90;99.90
13684;DHT22;6914;53.552;9.908;2023-02-15T13:36:57;11.00;99.90
13684;DHT22;6914;53.552;9.908;2023-02-15T13:39:34;10.60;99.90
13684;DHT22;6914;53.552;9.908;2023-02-15T13:42:16;10.20;99.90
13684;DHT22;6914;53.552;9.908;2023-02-15T13:44:58;10.40;99.90
13684;DHT22;6914;53.552;9.908;2023-02-15T13:47:34;10.20;99.90
13684;DHT22;6914;53.552;9.908;2023-02-15T13:50:28;10.00;99.90
13684;DHT22;6914;53.552;9.908;2023-02-15T13:53:12;10.80;99.90
13684;DHT22;6914;53.552;9.908;2023-02-15T13:55:48;10.00;99.90
13684;DHT22;6914;53.552;9.908;2023-02-15T13:58:33;9.50;99.90
13684;DHT22;6914;53.552;9.908;2023-02-15T14:01:09;9.20;99.90
13684;DHT22;6914;53.552;9.908;2023-02-15T14:04:15;9.00;99.90
13684;DHT22;6914;53.552;9.908;2023-02-15T14:06:58;9.00;99.90
13684;DHT22;6914;53.552;9.908;2023-02-15T14:09:40;9.20;99.90
13684;DHT22;6914;53.552;9.908;2023-02-15T14:12:37;9.30;99.90
13684;DHT22;6914;53.552;9.908;2023-02-15T14:15:14;9.20;99.90
13684;DHT22;6914;53.552;9.908;2023-02-15T14:17:53;9.20;99.90
13684;DHT22;6914;53.552;9.908;2023-02-15T14:20:28;9.40;99.90
13684;DHT22;6914;53.552;9.908;2023-02-15T14:23:04;9.60;99.90
13684;DHT22;6914;53.552;9.908;2023-02-15T14:25:41;9.50;99.90
13684;DHT22;6914;53.552;9.908;2023-02-15T14:28:12;9.10;99.90
13684;DHT22;6914;53.552;9.908;2023-02-15T14:30:44;9.80;99.90
13684;DHT22;6914;53.552;9.908;2023-02-15T14:33:31;9.60;99.90
13684;DHT22;6914;53.552;9.908;2023-02-15T14:36:02;9.90;99.90
13684;DHT22;6914;53.552;9.908;2023-02-15T14:38:42;9.50;99.90
13684;DHT22;6914;53.552;9.908;2023-02-15T14:41:13;9.40;99.90
13684;DHT22;6914;53.552;9.908;2023-02-15T14:43:48;9.30;99.90
13684;DHT22;6914;53.552;9.908;2023-02-15T14:46:24;9.30;99.90
13684;DHT22;6914;53.552;9.908;2023-02-15T14:48:53;8.90;99.90
13684;DHT22;6914;53.552;9.908;2023-02-15T14:54:57;8.90;99.90
13684;DHT22;6914;53.552;9.908;2023-02-15T14:57:29;8.90;99.90
13684;DHT22;6914;53.552;9.908;2023-02-15T14:59:58;8.90;99.90
13684;DHT22;6914;53.552;9.908;2023-02-15T15:02:29;8.70;99.90
13684;DHT22;6914;53.552;9.908;2023-02-15T15:05:00;8.80;99.90
13684;DHT22;6914;53.552;9.908;2023-02-15T15:07:35;8.80;99.90
13684;DHT22;6914;53.552;9.908;2023-02-15T15:10:32;8.80;99.90
13684;DHT22;6914;53.552;9.908;2023-02-15T15:12:55;8.90;99.90
13684;DHT22;6914;53.552;9.908;2023-02-15T15:15:34;8.60;99.90
13684;DHT22;6914;53.552;9.908;2023-02-15T15:18:01;8.60;99.90
13684;DHT22;6914;53.552;9.908;2023-02-15T15:20:43;8.60;99.90
13684;DHT22;6914;53.552;9.908;2023-02-15T15:23:38;8.50;99.90
13684;DHT22;6914;53.552;9.908;2023-02-15T15:26:24;8.50;99.90
13684;DHT22;6914;53.552;9.908;2023-02-15T15:29:00;8.30;99.90
13684;DHT22;6914;53.552;9.908;2023-02-15T15:31:40;8.50;99.90
13684;DHT22;6914;53.552;9.908;2023-02-15T15:46:47;7.50;99.90
13684;DHT22;6914;53.552;9.908;2023-02-15T15:49:18;7.60;99.90
13684;DHT22;6914;53.552;9.908;2023-02-15T15:51:47;7.50;99.90
13684;DHT22;6914;53.552;9.908;2023-02-15T15:54:17;8.60;99.90
13684;DHT22;6914;53.552;9.908;2023-02-15T15:56:48;7.50;99.90
13684;DHT22;6914;53.552;9.908;2023-02-15T15:59:21;7.40;99.90
13684;DHT22;6914;53.552;9.908;2023-02-15T16:01:49;7.30;99.90
13684;DHT22;6914;53.552;9.908;2023-02-15T16:04:24;7.20;99.90
13684;DHT22;6914;53.552;9.908;2023-02-15T16:06:52;7.10;99.90
13684;DHT22;6914;53.552;9.908;2023-02-15T16:09:21;7.00;99.90
13684;DHT22;6914;53.552;9.908;2023-02-15T16:11:50;7.00;99.90
13684;DHT22;6914;53.552;9.908;2023-02-15T16:14:25;7.00;99.90
13684;DHT22;6914;53.552;9.908;2023-02-15T16:16:56;6.90;99.90
13684;DHT22;6914;53.552;9.908;2023-02-15T16:19:26;6.80;99.90
13684;DHT22;6914;53.552;9.908;2023-02-15T16:21:54;6.70;99.90
13684;DHT22;6914;53.552;9.908;2023-02-15T16:24:33;6.70;99.90
13684;DHT22;6914;53.552;9.908;2023-02-15T16:27:29;6.80;99.90
13684;DHT22;6914;53.552;9.908;2023-02-15T16:30:10;6.50;99.90
13684;DHT22;6914;53.552;9.908;2023-02-15T16:32:37;6.50;99.90
13684;DHT22;6914;53.552;9.908;2023-02-15T16:35:13;6.40;99.90
13684;DHT22;6914;53.552;9.908;2023-02-15T16:37:41;6.30;99.90
13684;DHT22;6914;53.552;9.908;2023-02-15T16:40:26;6.50;99.90
13684;DHT22;6914;53.552;9.908;2023-02-15T16:42:55;6.20;99.90
13684;DHT22;6914;53.552;9.908;2023-02-15T16:45:26;6.10;99.90
13684;DHT22;6914;53.552;9.908;2023-02-15T16:47:57;5.90;99.90
13684;DHT22;6914;53.552;9.908;2023-02-15T16:50:28;5.70;99.90
13684;DHT22;6914;53.552;9.908;2023-02-15T16:52:57;5.80;99.90
13684;DHT22;6914;53.552;9.908;2023-02-15T16:55:26;5.80;99.90
13684;DHT22;6914;53.552;9.908;2023-02-15T16:57:56;7.50;99.90